Time;durP1;ratioP1;P1;durP2;ratioP2;P2;SDS_P1;SDS_P2;PMS_P1;PMS_P2;Temp;Humidity;BMP_temperature;BMP_pressure;BME280_temperature;BME280_humidity;BME280_pressure;Samples;Min_cycle;Max_cycle;Signal;HPM_P1;HPM_P2
2021/08/31 00:02:40;;;;;;;7.50;5.00;;;;;;;;;;8221013;28;20479;-76
2021/08/31 00:06:45;;;;;;;6.30;4.50;;;;;;;;;;8193515;28;20475;-76
2021/08/31 00:10:51;;;;;;;7.85;4.40;;;;;;;;;;8176411;28;20471;-76
2021/08/31 00:14:56;;;;;;;9.00;5.03;;;;;;;;;;8192767;28;20490;-76
2021/08/31 00:19:01;;;;;;;8.68;4.38;;;;;;;;;;8191603;28;20380;-76
2021/08/31 00:23:07;;;;;;;5.90;4.18;;;;;;;;;;8191426;28;20349;-77
2021/08/31 00:27:11;;;;;;;7.88;4.38;;;;;;;;;;8192073;28;20377;-76
2021/08/31 00:31:16;;;;;;;9.85;4.47;;;;;;;;;;8192606;28;20353;-77
2021/08/31 00:35:21;;;;;;;7.85;4.47;;;;;;;;;;8175411;28;20453;-76
2021/08/31 00:39:26;;;;;;;8.18;4.70;;;;;;;;;;8192271;28;20465;-76
2021/08/31 00:43:50;;;;;;;7.18;4.82;;;;;;;;;;8175966;28;20333;-77
2021/08/31 00:47:56;;;;;;;9.52;5.25;;;;;;;;;;8174497;28;20492;-77
2021/08/31 00:52:02;;;;;;;13.18;5.75;;;;;;;;;;8191752;28;20049;-77
2021/08/31 00:56:11;;;;;;;11.55;4.95;;;;;;;;;;8175683;28;20404;-78
2021/08/31 01:00:16;;;;;;;;;;;;;;;;;;8175232;28;20380;-77
2021/08/31 01:04:24;;;;;;;9.40;6.07;;;;;;;;;;8192150;28;19944;-76
2021/08/31 01:08:29;;;;;;;11.02;6.97;;;;;;;;;;8192321;28;20506;-76
2021/08/31 01:12:34;;;;;;;9.38;6.85;;;;;;;;;;8191735;28;20375;-77
2021/08/31 01:16:40;;;;;;;7.68;5.47;;;;;;;;;;8192159;28;20493;-77
2021/08/31 01:20:45;;;;;;;9.73;5.72;;;;;;;;;;8191593;28;20477;-79
2021/08/31 01:25:10;;;;;;;10.10;5.25;;;;;;;;;;8193536;28;20457;-77
2021/08/31 01:29:15;;;;;;;7.82;4.95;;;;;;;;;;8192896;28;20053;-77
2021/08/31 01:33:26;;;;;;;7.82;5.30;;;;;;;;;;8174546;28;20072;-80
2021/08/31 01:37:31;;;;;;;6.45;4.30;;;;;;;;;;8207944;28;20449;-78
2021/08/31 01:41:37;;;;;;;8.27;5.28;;;;;;;;;;8200014;28;20465;-79
2021/08/31 01:45:47;;;;;;;10.45;5.38;;;;;;;;;;8198533;28;20046;-78
2021/08/31 01:49:53;;;;;;;7.25;4.97;;;;;;;;;;8199394;28;20341;-77
2021/08/31 01:53:59;;;;;;;11.43;5.50;;;;;;;;;;8198932;28;20487;-78
2021/08/31 01:58:04;;;;;;;5.93;4.85;;;;;;;;;;8199834;28;20041;-77
2021/08/31 02:02:10;;;;;;;5.80;4.32;;;;;;;;;;8164074;28;20367;-77
2021/08/31 02:06:15;;;;;;;6.70;5.10;;;;;;;;;;8199389;28;20476;-76
2021/08/31 02:10:20;;;;;;;7.88;4.88;;;;;;;;;;8178486;28;20050;-76
2021/08/31 02:14:25;;;;;;;7.30;4.40;;;;;;;;;;8198477;28;20042;-76
2021/08/31 02:18:30;;;;;;;6.53;3.85;;;;;;;;;;8195690;28;20353;-76
2021/08/31 02:22:37;;;;;;;5.72;3.72;;;;;;;;;;8197032;28;20346;-77
2021/08/31 02:26:42;;;;;;;4.60;3.17;;;;;;;;;;8210925;28;20492;-79
2021/08/31 02:30:48;;;;;;;3.88;3.10;;;;;;;;;;8178521;28;20412;-77
2021/08/31 02:34:53;;;;;;;6.47;3.45;;;;;;;;;;8194722;28;20488;-77
2021/08/31 02:38:59;;;;;;;8.48;5.05;;;;;;;;;;8195116;28;20064;-77
2021/08/31 02:43:04;;;;;;;8.77;5.97;;;;;;;;;;8195724;28;20384;-77
2021/08/31 02:47:09;;;;;;;8.02;4.85;;;;;;;;;;8197700;28;20388;-80
2021/08/31 02:51:15;;;;;;;5.15;3.25;;;;;;;;;;8177450;28;20465;-79
2021/08/31 02:55:20;;;;;;;3.10;2.40;;;;;;;;;;8195574;28;20049;-78
2021/08/31 02:59:26;;;;;;;2.88;2.05;;;;;;;;;;8196175;28;20076;-78
2021/08/31 03:03:33;;;;;;;3.72;2.22;;;;;;;;;;8196748;28;20404;-79
2021/08/31 03:07:39;;;;;;;2.83;1.98;;;;;;;;;;8197668;28;20453;-79
2021/08/31 03:11:44;;;;;;;3.20;2.50;;;;;;;;;;8210080;28;20464;-79
2021/08/31 03:15:49;;;;;;;3.85;2.30;;;;;;;;;;8210632;28;20355;-79
2021/08/31 03:19:55;;;;;;;4.13;3.15;;;;;;;;;;8177798;28;20336;-79
2021/08/31 03:24:00;;;;;;;3.38;2.67;;;;;;;;;;8198122;28;20054;-79
2021/08/31 03:28:05;;;;;;;5.65;3.35;;;;;;;;;;8178342;28;20374;-78
2021/08/31 03:32:10;;;;;;;5.20;3.65;;;;;;;;;;8197086;28;20495;-79
2021/08/31 03:36:15;;;;;;;8.00;4.47;;;;;;;;;;8196845;28;20457;-79
2021/08/31 03:40:20;;;;;;;15.95;6.28;;;;;;;;;;8180297;28;20046;-80
2021/08/31 03:44:25;;;;;;;9.10;5.85;;;;;;;;;;8212084;28;20140;-80
2021/08/31 03:48:31;;;;;;;11.63;5.75;;;;;;;;;;8196123;28;20498;-78
2021/08/31 03:52:36;;;;;;;8.10;5.28;;;;;;;;;;8198326;28;20499;-79
2021/08/31 03:56:41;;;;;;;8.55;5.28;;;;;;;;;;8178220;28;20457;-79
2021/08/31 04:00:46;;;;;;;10.88;5.65;;;;;;;;;;8198291;28;20384;-80
2021/08/31 04:04:51;;;;;;;8.50;5.53;;;;;;;;;;8197139;28;20469;-80
2021/08/31 04:08:57;;;;;;;11.38;6.28;;;;;;;;;;8198072;28;20404;-81
2021/08/31 04:13:02;;;;;;;7.90;5.50;;;;;;;;;;8180703;28;20379;-80
2021/08/31 04:17:07;;;;;;;9.48;6.35;;;;;;;;;;8196186;28;20068;-80
2021/08/31 04:21:12;;;;;;;9.70;6.35;;;;;;;;;;8197876;28;20063;-80
2021/08/31 04:25:17;;;;;;;9.50;6.07;;;;;;;;;;8195105;28;20496;-78
2021/08/31 04:29:22;;;;;;;7.90;5.75;;;;;;;;;;8176352;28;20357;-78
2021/08/31 04:33:28;;;;;;;7.82;4.10;;;;;;;;;;8193385;28;20387;-80
2021/08/31 04:37:33;;;;;;;5.72;3.95;;;;;;;;;;8195862;28;20046;-78
2021/08/31 04:41:38;;;;;;;5.00;3.90;;;;;;;;;;8192316;28;20072;-78
2021/08/31 04:45:44;;;;;;;4.88;3.33;;;;;;;;;;8195047;28;20491;-79
2021/08/31 04:49:49;;;;;;;4.93;3.63;;;;;;;;;;8192858;28;20354;-76
2021/08/31 04:53:54;;;;;;;2.88;2.40;;;;;;;;;;8193685;28;20361;-76
2021/08/31 04:57:59;;;;;;;3.92;2.47;;;;;;;;;;8190556;28;20468;-77
2021/08/31 05:02:06;;;;;;;2.50;2.08;;;;;;;;;;8191743;28;20538;-77
2021/08/31 05:06:11;;;;;;;4.07;2.00;;;;;;;;;;8192656;28;20080;-76
2021/08/31 05:10:16;;;;;;;3.13;2.25;;;;;;;;;;8191005;28;20484;-79
2021/08/31 05:14:21;;;;;;;4.55;2.60;;;;;;;;;;8179032;28;20495;-78
2021/08/31 05:18:27;;;;;;;2.97;2.20;;;;;;;;;;8200566;28;20346;-78
2021/08/31 05:22:32;;;;;;;4.07;2.90;;;;;;;;;;8179996;28;20364;-78
2021/08/31 05:26:38;;;;;;;4.95;3.10;;;;;;;;;;8182091;28;20493;-79
2021/08/31 05:30:43;;;;;;;6.57;3.40;;;;;;;;;;8197143;28;20073;-80
2021/08/31 05:34:48;;;;;;;5.22;3.22;;;;;;;;;;8197893;28;20061;-79
2021/08/31 05:38:55;;;;;;;7.05;4.10;;;;;;;;;;8182160;28;20468;-79
2021/08/31 05:43:00;;;;;;;4.90;3.58;;;;;;;;;;8181456;28;20054;-79
2021/08/31 05:47:08;;;;;;;;;;;;;;;;;;8200427;28;20400;-79
2021/08/31 05:51:13;;;;;;;7.07;4.03;;;;;;;;;;8200626;28;19921;-79
2021/08/31 05:55:18;;;;;;;6.18;3.90;;;;;;;;;;8201928;28;20076;-78
2021/08/31 05:59:24;;;;;;;6.68;3.88;;;;;;;;;;8198455;28;20473;-79
2021/08/31 06:03:33;;;;;;;8.48;3.72;;;;;;;;;;8196998;28;20464;-79
2021/08/31 06:07:42;;;;;;;8.45;4.47;;;;;;;;;;8179144;28;20396;-78
2021/08/31 06:11:47;;;;;;;8.40;4.95;;;;;;;;;;8196120;28;20350;-77
2021/08/31 06:15:53;;;;;;;13.73;6.40;;;;;;;;;;8198885;28;20139;-78
2021/08/31 06:19:58;;;;;;;8.77;5.60;;;;;;;;;;8194394;28;20480;-77
2021/08/31 06:24:03;;;;;;;7.60;4.78;;;;;;;;;;8196283;28;20404;-78
2021/08/31 06:28:08;;;;;;;8.50;4.65;;;;;;;;;;8195736;28;20376;-78
2021/08/31 06:32:13;;;;;;;7.30;4.65;;;;;;;;;;8196092;28;20464;-76
2021/08/31 06:36:19;;;;;;;9.73;4.97;;;;;;;;;;8194850;28;20076;-77
2021/08/31 06:40:24;;;;;;;11.27;5.95;;;;;;;;;;8195668;28;20050;-76
2021/08/31 06:44:30;;;;;;;10.73;6.35;;;;;;;;;;8195097;28;20427;-77
2021/08/31 06:48:39;;;;;;;11.07;6.20;;;;;;;;;;8196272;28;20389;-77
2021/08/31 06:52:48;;;;;;;10.30;7.35;;;;;;;;;;8194798;28;20380;-77
2021/08/31 06:56:53;;;;;;;11.38;7.25;;;;;;;;;;8194566;28;20379;-78
2021/08/31 07:00:59;;;;;;;10.07;6.13;;;;;;;;;;8052958;28;20465;-76
2021/08/31 07:05:06;;;;;;;9.65;6.43;;;;;;;;;;8113297;28;20078;-76
2021/08/31 07:09:11;;;;;;;14.60;6.05;;;;;;;;;;8114175;28;20081;-75
2021/08/31 07:13:16;;;;;;;9.75;4.97;;;;;;;;;;8113296;28;20503;-76
2021/08/31 07:17:21;;;;;;;7.35;4.25;;;;;;;;;;8113327;28;20374;-76
2021/08/31 07:21:27;;;;;;;8.27;4.53;;;;;;;;;;8129903;28;20520;-76
2021/08/31 07:25:32;;;;;;;7.05;4.57;;;;;;;;;;8049573;28;20050;-77
2021/08/31 07:29:37;;;;;;;6.63;4.75;;;;;;;;;;8119876;28;20485;-76
2021/08/31 07:33:43;;;;;;;8.05;6.38;;;;;;;;;;8161833;28;20072;-77
2021/08/31 07:37:49;;;;;;;8.35;5.82;;;;;;;;;;8161144;28;20368;-77
2021/08/31 07:41:54;;;;;;;9.32;6.28;;;;;;;;;;8160768;28;20046;-77
2021/08/31 07:45:59;;;;;;;11.13;6.22;;;;;;;;;;8161660;28;20468;-77
2021/08/31 07:50:06;;;;;;;9.32;6.05;;;;;;;;;;8160338;28;20416;-78
2021/08/31 07:54:12;;;;;;;5.18;3.60;;;;;;;;;;8108859;28;20604;-77
2021/08/31 07:58:17;;;;;;;3.25;2.53;;;;;;;;;;8160498;28;20046;-77
2021/08/31 08:02:22;;;;;;;4.60;2.97;;;;;;;;;;8158971;28;20416;-76
2021/08/31 08:06:28;;;;;;;5.13;2.85;;;;;;;;;;8159474;28;20365;-79
2021/08/31 08:10:33;;;;;;;8.48;4.85;;;;;;;;;;8158261;28;20389;-78
2021/08/31 08:14:38;;;;;;;14.57;7.28;;;;;;;;;;8159829;28;20376;-78
2021/08/31 08:18:43;;;;;;;11.65;6.53;;;;;;;;;;8160551;28;20453;-78
2021/08/31 08:22:49;;;;;;;13.45;6.45;;;;;;;;;;8175662;28;20476;-79
2021/08/31 08:26:58;;;;;;;13.32;5.97;;;;;;;;;;8191543;28;20353;-78
2021/08/31 08:31:03;;;;;;;12.50;5.80;;;;;;;;;;8195336;28;20472;-79
2021/08/31 08:35:11;;;;;;;13.05;7.38;;;;;;;;;;8194345;28;20483;-78
2021/08/31 08:39:19;;;;;;;7.30;4.40;;;;;;;;;;8192590;28;20396;-78
2021/08/31 08:43:23;;;;;;;11.45;5.03;;;;;;;;;;8193008;28;20844;-79
2021/08/31 08:47:28;;;;;;;9.02;4.60;;;;;;;;;;8190820;28;20481;-79
2021/08/31 08:51:34;;;;;;;7.40;4.03;;;;;;;;;;8174544;28;20499;-78
2021/08/31 08:55:39;;;;;;;4.90;2.80;;;;;;;;;;8095929;28;20488;-78
2021/08/31 08:59:45;;;;;;;3.05;2.13;;;;;;;;;;8175017;28;20456;-79
2021/08/31 09:03:55;;;;;;;6.18;2.92;;;;;;;;;;8193049;28;20381;-79
2021/08/31 09:08:07;;;;;;;5.10;2.30;;;;;;;;;;8193307;28;20338;-80
2021/08/31 09:12:35;;;;;;;6.30;2.65;;;;;;;;;;8174957;28;20384;-80
2021/08/31 09:16:45;;;;;;;2.60;1.80;;;;;;;;;;8176364;28;20476;-79
2021/08/31 09:20:56;;;;;;;4.80;1.80;;;;;;;;;;8192376;28;20375;-79
2021/08/31 09:25:11;;;;;;;3.63;2.08;;;;;;;;;;8169056;28;20053;-81
2021/08/31 09:29:23;;;;;;;3.67;2.33;;;;;;;;;;8176908;28;20334;-79
2021/08/31 09:33:33;;;;;;;7.38;3.97;;;;;;;;;;8176739;28;20365;-78
2021/08/31 09:37:38;;;;;;;3.03;1.88;;;;;;;;;;8175673;28;20572;-79
2021/08/31 09:41:45;;;;;;;3.35;1.70;;;;;;;;;;8191277;28;20457;-78
2021/08/31 09:45:55;;;;;;;3.17;2.10;;;;;;;;;;8180361;28;20396;-78
2021/08/31 09:50:01;;;;;;;2.70;1.80;;;;;;;;;;8195382;28;20050;-79
2021/08/31 09:54:22;;;;;;;2.80;2.00;;;;;;;;;;8209006;28;20464;-78
2021/08/31 09:58:29;;;;;;;6.47;2.70;;;;;;;;;;8173833;28;20353;-77
2021/08/31 10:02:34;;;;;;;1.98;1.63;;;;;;;;;;8179823;28;20404;-77
2021/08/31 10:06:41;;;;;;;2.50;1.50;;;;;;;;;;8179869;28;20456;-78
2021/08/31 10:10:49;;;;;;;3.50;1.80;;;;;;;;;;8197257;28;20468;-77
2021/08/31 10:14:58;;;;;;;3.33;1.77;;;;;;;;;;8180010;28;20406;-77
2021/08/31 10:19:03;;;;;;;5.43;2.20;;;;;;;;;;8165041;28;20350;-79
2021/08/31 10:23:09;;;;;;;2.65;1.52;;;;;;;;;;8197615;28;20053;-79
2021/08/31 10:27:30;;;;;;;5.90;1.65;;;;;;;;;;8201579;28;20038;-80
2021/08/31 10:31:35;;;;;;;2.95;1.60;;;;;;;;;;8197788;28;20049;-78
2021/08/31 10:35:46;;;;;;;3.20;2.30;;;;;;;;;;8197536;28;20500;-80
2021/08/31 10:39:58;;;;;;;1.38;1.15;;;;;;;;;;8197373;28;20369;-79
2021/08/31 10:44:05;;;;;;;2.25;1.23;;;;;;;;;;8200057;28;20381;-80
2021/08/31 10:48:24;;;;;;;2.10;1.17;;;;;;;;;;8198939;28;20507;-78
2021/08/31 10:52:45;;;;;;;3.70;1.25;;;;;;;;;;8195994;28;20408;-80
2021/08/31 10:56:50;;;;;;;2.95;1.20;;;;;;;;;;8199679;28;20457;-80
2021/08/31 11:00:55;;;;;;;3.58;1.70;;;;;;;;;;8180885;28;20046;-77
2021/08/31 11:05:19;;;;;;;5.20;2.20;;;;;;;;;;8193965;28;20076;-76
2021/08/31 11:09:25;;;;;;;4.70;1.90;;;;;;;;;;8194633;28;20457;-77
2021/08/31 11:13:31;;;;;;;2.47;1.40;;;;;;;;;;8194756;28;20375;-77
2021/08/31 11:17:40;;;;;;;2.97;1.42;;;;;;;;;;8194287;28;20468;-77
2021/08/31 11:21:51;;;;;;;3.28;1.30;;;;;;;;;;8187082;28;20379;-77
2021/08/31 11:26:01;;;;;;;5.82;1.45;;;;;;;;;;8193503;28;20487;-76
2021/08/31 11:30:07;;;;;;;1.80;0.98;;;;;;;;;;8178154;28;20484;-77
2021/08/31 11:34:12;;;;;;;2.33;0.82;;;;;;;;;;8178323;28;20049;-77
2021/08/31 11:38:40;;;;;;;2.63;1.30;;;;;;;;;;8191672;28;20510;-78
2021/08/31 11:42:56;;;;;;;1.02;0.77;;;;;;;;;;8194219;28;20494;-77
2021/08/31 11:47:01;;;;;;;0.77;0.50;;;;;;;;;;8175947;28;20511;-78
2021/08/31 11:51:09;;;;;;;1.90;1.08;;;;;;;;;;8174539;28;20380;-78
2021/08/31 11:55:21;;;;;;;6.28;3.20;;;;;;;;;;8176384;28;20042;-78
2021/08/31 11:59:48;;;;;;;3.88;2.10;;;;;;;;;;8207607;28;20065;-78
2021/08/31 12:03:53;;;;;;;2.70;1.63;;;;;;;;;;8175721;28;20046;-79
2021/08/31 12:07:58;;;;;;;3.20;1.90;;;;;;;;;;8192221;28;20494;-78
2021/08/31 12:12:04;;;;;;;4.75;2.58;;;;;;;;;;8175369;28;20103;-80
2021/08/31 12:16:14;;;;;;;4.05;2.83;;;;;;;;;;8176875;28;20049;-79
2021/08/31 12:20:25;;;;;;;2.88;1.80;;;;;;;;;;8175835;28;20096;-79
2021/08/31 12:24:30;;;;;;;3.25;1.30;;;;;;;;;;8189751;28;20477;-78
2021/08/31 12:29:03;;;;;;;4.35;2.38;;;;;;;;;;8174622;28;20492;-79
2021/08/31 12:33:11;;;;;;;1.77;1.20;;;;;;;;;;8192413;28;20050;-78
2021/08/31 12:37:35;;;;;;;2.00;1.23;;;;;;;;;;8175714;28;20081;-79
2021/08/31 12:41:44;;;;;;;4.30;0.90;;;;;;;;;;8193198;28;20607;-79
2021/08/31 12:45:59;;;;;;;1.63;1.27;;;;;;;;;;8191742;28;20471;-78
2021/08/31 12:50:12;;;;;;;1.50;0.93;;;;;;;;;;8195049;28;20349;-79
2021/08/31 12:54:27;;;;;;;1.90;1.13;;;;;;;;;;8193190;28;20491;-78
2021/08/31 12:58:37;;;;;;;2.55;1.35;;;;;;;;;;8209798;28;20380;-80
2021/08/31 13:02:42;;;;;;;1.70;1.08;;;;;;;;;;8159501;28;20045;-78
2021/08/31 13:06:53;;;;;;;2.65;1.30;;;;;;;;;;8192402;28;20472;-79
2021/08/31 13:10:59;;;;;;;2.33;1.50;;;;;;;;;;8176964;28;20401;-79
2021/08/31 13:15:06;;;;;;;2.65;1.42;;;;;;;;;;8194916;28;20046;-79
2021/08/31 13:19:11;;;;;;;2.97;1.52;;;;;;;;;;8191621;28;20046;-78
2021/08/31 13:23:16;;;;;;;5.03;1.58;;;;;;;;;;8191436;28;20061;-77
2021/08/31 13:27:20;;;;;;;1.80;1.25;;;;;;;;;;8158100;28;20330;-78
2021/08/31 13:31:25;;;;;;;4.13;1.60;;;;;;;;;;8189937;28;20380;-77
2021/08/31 13:35:30;;;;;;;3.28;1.67;;;;;;;;;;8177563;28;20060;-77
2021/08/31 13:39:36;;;;;;;3.38;1.73;;;;;;;;;;8196694;28;20473;-77
2021/08/31 13:43:41;;;;;;;2.42;1.40;;;;;;;;;;8195697;28;20360;-76
2021/08/31 13:47:46;;;;;;;3.75;1.90;;;;;;;;;;8197505;28;20342;-78
2021/08/31 13:51:54;;;;;;;3.28;1.70;;;;;;;;;;8196504;28;20467;-78
2021/08/31 13:55:59;;;;;;;5.93;2.00;;;;;;;;;;8213013;28;20376;-78
2021/08/31 14:00:06;;;;;;;4.85;2.30;;;;;;;;;;8196274;28;20644;-79
2021/08/31 14:04:14;;;;;;;6.38;3.03;;;;;;;;;;8195648;28;20054;-79
2021/08/31 14:08:19;;;;;;;8.63;2.83;;;;;;;;;;8135907;28;20061;-78
2021/08/31 14:12:24;;;;;;;8.77;3.38;;;;;;;;;;8187014;28;20068;-79
2021/08/31 14:16:30;;;;;;;9.63;4.53;;;;;;;;;;8195515;28;20072;-79
2021/08/31 14:20:36;;;;;;;8.80;4.43;;;;;;;;;;8174897;28;20346;-79
2021/08/31 14:24:41;;;;;;;5.80;2.67;;;;;;;;;;8177475;28;20424;-79
2021/08/31 14:28:46;;;;;;;6.28;2.88;;;;;;;;;;8195360;28;20602;-79
2021/08/31 14:32:52;;;;;;;4.88;2.92;;;;;;;;;;8198283;28;20371;-80
2021/08/31 14:36:56;;;;;;;4.07;2.05;;;;;;;;;;8228331;28;20500;-78
2021/08/31 14:41:02;;;;;;;5.50;2.25;;;;;;;;;;8227219;28;20403;-79
2021/08/31 14:45:09;;;;;;;6.90;3.28;;;;;;;;;;8226665;28;20069;-79
2021/08/31 14:49:14;;;;;;;3.95;2.28;;;;;;;;;;8229564;28;20375;-78
2021/08/31 14:53:19;;;;;;;3.28;2.50;;;;;;;;;;8230503;28;20465;-81
2021/08/31 14:57:24;;;;;;;6.80;2.92;;;;;;;;;;8227593;28;20371;-79
2021/08/31 15:01:30;;;;;;;4.75;3.08;;;;;;;;;;8228421;28;20061;-78
2021/08/31 15:05:37;;;;;;;9.10;5.80;;;;;;;;;;8227324;28;20376;-78
2021/08/31 15:09:42;;;;;;;6.05;4.03;;;;;;;;;;8226400;28;20460;-77
2021/08/31 15:13:47;;;;;;;22.95;17.38;;;;;;;;;;8227449;28;20476;-79
2021/08/31 15:17:51;;;;;;;11.32;9.52;;;;;;;;;;8228758;28;20371;-80
2021/08/31 15:21:56;;;;;;;27.67;15.82;;;;;;;;;;8228317;28;20387;-79
2021/08/31 15:26:01;;;;;;;15.55;6.25;;;;;;;;;;8229176;28;20115;-79
2021/08/31 15:30:07;;;;;;;2.78;1.80;;;;;;;;;;8226141;28;20452;-78
2021/08/31 15:34:11;;;;;;;2.60;1.75;;;;;;;;;;8223080;28;20455;-78
2021/08/31 15:38:16;;;;;;;3.85;2.30;;;;;;;;;;8207778;28;20053;-78
2021/08/31 15:42:24;;;;;;;4.75;2.10;;;;;;;;;;8222402;28;20435;-79
2021/08/31 15:46:28;;;;;;;5.38;2.88;;;;;;;;;;8225866;28;20072;-78
2021/08/31 15:50:33;;;;;;;5.95;2.42;;;;;;;;;;8225700;28;20041;-78
2021/08/31 15:54:45;;;;;;;6.43;2.67;;;;;;;;;;8228937;28;20389;-78
2021/08/31 15:58:57;;;;;;;12.20;5.00;;;;;;;;;;8225980;28;20045;-78
2021/08/31 16:03:04;;;;;;;5.53;3.00;;;;;;;;;;8202820;28;20479;-79
2021/08/31 16:07:10;;;;;;;6.38;1.92;;;;;;;;;;8219110;28;20054;-79
2021/08/31 16:11:15;;;;;;;4.82;3.13;;;;;;;;;;8226139;28;20476;-79
2021/08/31 16:15:20;;;;;;;2.63;1.42;;;;;;;;;;8239993;28;20510;-75
2021/08/31 16:19:29;;;;;;;3.00;1.40;;;;;;;;;;8224741;28;20049;-77
2021/08/31 16:23:35;;;;;;;1.42;0.75;;;;;;;;;;8224082;28;20483;-77
2021/08/31 16:27:39;;;;;;;0.68;0.50;;;;;;;;;;8226349;28;20053;-77
2021/08/31 16:31:45;;;;;;;3.30;1.60;;;;;;;;;;8207863;28;20399;-78
2021/08/31 16:35:52;;;;;;;3.47;1.20;;;;;;;;;;8222913;28;20399;-77
2021/08/31 16:39:57;;;;;;;4.22;1.50;;;;;;;;;;8221770;28;20494;-78
2021/08/31 16:44:02;;;;;;;6.43;2.90;;;;;;;;;;8225661;28;20041;-77
2021/08/31 16:48:07;;;;;;;4.95;2.78;;;;;;;;;;8207162;28;20491;-77
2021/08/31 16:52:12;;;;;;;124.88;41.33;;;;;;;;;;8206198;28;20341;-77
2021/08/31 16:56:17;;;;;;;7.22;3.97;;;;;;;;;;8224924;28;20660;-77
2021/08/31 17:00:24;;;;;;;3.05;1.40;;;;;;;;;;8206186;28;20403;-76
2021/08/31 17:04:29;;;;;;;1.67;1.02;;;;;;;;;;8225250;28;20049;-76
2021/08/31 17:08:35;;;;;;;3.92;1.73;;;;;;;;;;8224706;28;20456;-76
2021/08/31 17:12:40;;;;;;;19.90;5.18;;;;;;;;;;8230147;28;20464;-77
2021/08/31 17:16:45;;;;;;;10.00;3.65;;;;;;;;;;8212045;28;20391;-77
2021/08/31 17:20:51;;;;;;;5.53;1.55;;;;;;;;;;8230554;28;20045;-76
2021/08/31 17:24:56;;;;;;;4.20;1.70;;;;;;;;;;8229587;28;20472;-77
2021/08/31 17:29:01;;;;;;;7.32;1.90;;;;;;;;;;8230664;28;20083;-76
2021/08/31 17:33:06;;;;;;;3.40;1.10;;;;;;;;;;8230666;28;20041;-76
2021/08/31 17:37:11;;;;;;;2.03;1.05;;;;;;;;;;8210698;28;20460;-77
2021/08/31 17:41:17;;;;;;;5.53;2.92;;;;;;;;;;8228807;28;20050;-76
2021/08/31 17:45:22;;;;;;;5.28;2.00;;;;;;;;;;8210399;28;20479;-76
2021/08/31 17:49:27;;;;;;;24.98;4.53;;;;;;;;;;8211710;28;20475;-77
2021/08/31 17:53:35;;;;;;;6.03;1.77;;;;;;;;;;8227154;28;20375;-77
2021/08/31 17:57:42;;;;;;;21.25;7.25;;;;;;;;;;8210658;28;20376;-78
2021/08/31 18:01:48;;;;;;;15.00;4.93;;;;;;;;;;8230277;28;20476;-77
2021/08/31 18:05:55;;;;;;;;;;;;;;;;;;8229012;28;20049;-76
2021/08/31 18:10:03;;;;;;;6.30;2.45;;;;;;;;;;8230319;28;20343;-76
2021/08/31 18:14:10;;;;;;;3.70;1.50;;;;;;;;;;8227773;28;20367;-78
2021/08/31 18:18:15;;;;;;;1.88;1.08;;;;;;;;;;8227236;28;20151;-77
2021/08/31 18:22:20;;;;;;;3.00;1.80;;;;;;;;;;8226541;28;20501;-77
2021/08/31 18:26:25;;;;;;;2.60;1.92;;;;;;;;;;8228740;28;20379;-77
2021/08/31 18:30:30;;;;;;;3.42;1.63;;;;;;;;;;8210247;28;20049;-77
2021/08/31 18:34:36;;;;;;;2.22;1.17;;;;;;;;;;8227246;28;20076;-78
2021/08/31 18:38:41;;;;;;;1.58;1.08;;;;;;;;;;8229524;28;20489;-76
2021/08/31 18:42:46;;;;;;;3.35;1.83;;;;;;;;;;8227399;28;20499;-78
2021/08/31 18:46:51;;;;;;;3.63;1.67;;;;;;;;;;8194290;28;20371;-78
2021/08/31 18:51:06;;;;;;;3.38;2.03;;;;;;;;;;8228517;28;20452;-79
2021/08/31 18:55:44;;;;;;;2.55;1.92;;;;;;;;;;8209885;28;20518;-78
2021/08/31 18:59:49;;;;;;;2.70;2.03;;;;;;;;;;8226542;28;20107;-77
2021/08/31 19:03:55;;;;;;;2.15;1.60;;;;;;;;;;8227148;28;20376;-76
2021/08/31 19:08:00;;;;;;;2.88;1.55;;;;;;;;;;8229263;28;20356;-78
2021/08/31 19:12:06;;;;;;;5.15;2.03;;;;;;;;;;8208869;28;20479;-76
2021/08/31 19:16:11;;;;;;;2.33;1.55;;;;;;;;;;8226401;28;20488;-77
2021/08/31 19:20:18;;;;;;;1.88;1.40;;;;;;;;;;8227639;28;20045;-75
2021/08/31 19:24:21;;;;;;;1.80;1.33;;;;;;;;;;8156822;28;20387;-77
2021/08/31 19:28:27;;;;;;;2.67;1.63;;;;;;;;;;8226398;28;20353;-76
2021/08/31 19:32:32;;;;;;;2.75;1.85;;;;;;;;;;8227826;28;20057;-76
2021/08/31 19:36:37;;;;;;;1.45;1.20;;;;;;;;;;8209539;28;20065;-75
2021/08/31 19:40:42;;;;;;;1.65;1.27;;;;;;;;;;8209026;28;20071;-76
2021/08/31 19:44:47;;;;;;;2.15;1.55;;;;;;;;;;8225193;28;20034;-76
2021/08/31 19:48:53;;;;;;;7.47;1.75;;;;;;;;;;8225706;28;20483;-76
2021/08/31 19:52:58;;;;;;;2.08;1.70;;;;;;;;;;8207001;28;20365;-78
2021/08/31 19:57:04;;;;;;;4.82;1.38;;;;;;;;;;8224704;28;20480;-77
2021/08/31 20:01:09;;;;;;;6.95;1.70;;;;;;;;;;8223785;28;20361;-78
2021/08/31 20:05:14;;;;;;;2.33;1.60;;;;;;;;;;8208561;28;20376;-77
2021/08/31 20:09:19;;;;;;;5.97;1.90;;;;;;;;;;8225816;28;20376;-77
2021/08/31 20:13:25;;;;;;;3.38;1.73;;;;;;;;;;8227410;28;20041;-78
2021/08/31 20:17:30;;;;;;;3.10;2.10;;;;;;;;;;8224124;28;20371;-78
2021/08/31 20:21:35;;;;;;;3.80;2.20;;;;;;;;;;8239751;28;20068;-78
2021/08/31 20:25:41;;;;;;;5.65;2.58;;;;;;;;;;8225283;28;20368;-76
2021/08/31 20:29:46;;;;;;;3.67;2.40;;;;;;;;;;8224400;28;20491;-77
2021/08/31 20:33:51;;;;;;;5.10;1.77;;;;;;;;;;8224367;28;20498;-77
2021/08/31 20:37:56;;;;;;;4.32;1.85;;;;;;;;;;8224036;28;20483;-78
2021/08/31 20:42:02;;;;;;;2.88;1.80;;;;;;;;;;8223948;28;20472;-76
2021/08/31 20:46:07;;;;;;;4.55;2.40;;;;;;;;;;8223302;28;20360;-76
2021/08/31 20:50:14;;;;;;;11.07;2.25;;;;;;;;;;8225350;28;20456;-77
2021/08/31 20:54:19;;;;;;;4.38;1.90;;;;;;;;;;8223422;28;20491;-77
2021/08/31 20:58:24;;;;;;;4.22;1.90;;;;;;;;;;8224363;28;20073;-77
2021/08/31 21:02:29;;;;;;;3.92;2.00;;;;;;;;;;8206339;28;20395;-78
2021/08/31 21:06:34;;;;;;;4.55;2.50;;;;;;;;;;8224066;28;20476;-78
2021/08/31 21:10:40;;;;;;;5.03;2.17;;;;;;;;;;8206294;28;20037;-78
2021/08/31 21:14:45;;;;;;;4.28;2.35;;;;;;;;;;8224277;28;20352;-79
2021/08/31 21:18:53;;;;;;;3.20;1.98;;;;;;;;;;8239378;28;20352;-79
2021/08/31 21:22:58;;;;;;;3.85;2.67;;;;;;;;;;8206828;28;20403;-79
2021/08/31 21:27:04;;;;;;;7.70;3.30;;;;;;;;;;8223309;28;20053;-79
2021/08/31 21:31:09;;;;;;;6.30;3.38;;;;;;;;;;8224297;28;20073;-79
2021/08/31 21:35:14;;;;;;;5.47;2.80;;;;;;;;;;8223951;28;20037;-78
2021/08/31 21:39:20;;;;;;;4.72;3.00;;;;;;;;;;8238416;28;20376;-79
2021/08/31 21:43:25;;;;;;;3.97;2.60;;;;;;;;;;8223108;28;20472;-78
2021/08/31 21:47:30;;;;;;;6.80;2.92;;;;;;;;;;8223653;28;20345;-78
2021/08/31 21:51:35;;;;;;;4.25;2.47;;;;;;;;;;8223158;28;20498;-80
2021/08/31 21:55:41;;;;;;;3.15;1.98;;;;;;;;;;8224416;28;20367;-78
2021/08/31 21:59:46;;;;;;;3.25;1.85;;;;;;;;;;8211097;28;20372;-77
2021/08/31 22:03:51;;;;;;;2.40;1.40;;;;;;;;;;8229364;28;20491;-77
2021/08/31 22:07:56;;;;;;;2.67;1.40;;;;;;;;;;8227356;28;20491;-77
2021/08/31 22:12:01;;;;;;;1.52;1.40;;;;;;;;;;8229919;28;20338;-77
2021/08/31 22:16:07;;;;;;;2.10;1.30;;;;;;;;;;8228934;28;20068;-78
2021/08/31 22:20:17;;;;;;;3.03;1.40;;;;;;;;;;8228736;28;20557;-77
2021/08/31 22:24:22;;;;;;;1.77;1.02;;;;;;;;;;8227802;28;20049;-77
2021/08/31 22:28:28;;;;;;;4.82;1.63;;;;;;;;;;8210668;28;20510;-77
2021/08/31 22:32:34;;;;;;;2.53;1.50;;;;;;;;;;8209627;28;20061;-77
2021/08/31 22:36:39;;;;;;;1.73;1.45;;;;;;;;;;8228029;28;20482;-78
2021/08/31 22:40:45;;;;;;;3.65;1.70;;;;;;;;;;8194647;28;20472;-77
2021/08/31 22:44:50;;;;;;;3.67;1.98;;;;;;;;;;8210558;28;20440;-77
2021/08/31 22:48:56;;;;;;;2.03;1.30;;;;;;;;;;8209560;28;20349;-77
2021/08/31 22:53:01;;;;;;;2.72;1.42;;;;;;;;;;8228888;28;20468;-77
2021/08/31 22:57:07;;;;;;;2.53;1.55;;;;;;;;;;8210067;28;20064;-77
2021/08/31 23:01:12;;;;;;;5.60;1.67;;;;;;;;;;8227371;28;20472;-76
2021/08/31 23:05:17;;;;;;;2.00;1.42;;;;;;;;;;8227320;28;20049;-76
2021/08/31 23:09:22;;;;;;;1.95;1.30;;;;;;;;;;8208940;28;20045;-76
2021/08/31 23:13:28;;;;;;;3.08;1.40;;;;;;;;;;8226793;28;20472;-77
2021/08/31 23:17:34;;;;;;;1.95;1.35;;;;;;;;;;8226363;28;20060;-77
2021/08/31 23:21:40;;;;;;;2.08;1.23;;;;;;;;;;8209392;28;20049;-76
2021/08/31 23:25:46;;;;;;;2.22;1.15;;;;;;;;;;8191901;28;20473;-78
2021/08/31 23:29:51;;;;;;;1.98;0.80;;;;;;;;;;8194005;28;20050;-76
2021/08/31 23:33:56;;;;;;;1.85;1.33;;;;;;;;;;8192076;28;20353;-76
2021/08/31 23:38:01;;;;;;;3.08;0.90;;;;;;;;;;8209826;28;20053;-77
2021/08/31 23:42:06;;;;;;;3.40;0.93;;;;;;;;;;8192847;28;20375;-77
2021/08/31 23:46:11;;;;;;;2.42;1.42;;;;;;;;;;8194249;28;20046;-77
2021/08/31 23:50:17;;;;;;;0.98;0.88;;;;;;;;;;8194102;28;20440;-76
2021/08/31 23:54:22;;;;;;;2.50;1.17;;;;;;;;;;8193593;28;20495;-77
2021/08/31 23:58:27;;;;;;;0.98;0.77;;;;;;;;;;8193505;28;20376;-77
